La rose des vents
Donnes mto: Semaine 20/02/23 - 26/02/23 (S 8)
Date Horaire Temp. E. Hum. E. P.atmo. Pluie Vent 1mn Direction Ensoleilleme Ev.Tr. Solaire P. de rose Temp au vent Rafales
20/02/2023 00:00 10,9 C 88 % 1023,7 hPa 0,0 mm 0,0 km/h (0 Bft) N 0,00 h 0,000 mm 0 W/m 9,0 C 10,9 C 0,0 km/h (0 Bft)
20/02/2023 01:00 11,0 C 88 % 1023,8 hPa 0,0 mm 0,0 km/h (0 Bft) N 0,00 h 0,000 mm 0 W/m 9,0 C 11,0 C 0,0 km/h (0 Bft)
20/02/2023 02:00 11,2 C 87 % 1023,4 hPa 0,0 mm 0,0 km/h (0 Bft) N 0,00 h 0,000 mm 0 W/m 9,2 C 11,2 C 0,1 km/h (0 Bft)
20/02/2023 03:00 10,8 C 86 % 1023,7 hPa 0,0 mm 0,0 km/h (0 Bft) N 0,00 h 0,000 mm 0 W/m 8,6 C 10,8 C 0,0 km/h (0 Bft)
20/02/2023 04:00 10,6 C 86 % 1023,9 hPa 0,0 mm 0,0 km/h (0 Bft) N 0,00 h 0,000 mm 0 W/m 8,3 C 10,6 C 0,0 km/h (0 Bft)
20/02/2023 05:00 10,3 C 86 % 1024,1 hPa 0,0 mm 0,0 km/h (0 Bft) N 0,00 h 0,000 mm 0 W/m 8,0 C 10,3 C 0,0 km/h (0 Bft)
20/02/2023 06:00 10,3 C 86 % 1024,8 hPa 0,0 mm 0,0 km/h (0 Bft) N 0,00 h 0,000 mm 0 W/m 8,1 C 10,3 C 0,0 km/h (0 Bft)
20/02/2023 07:00 10,5 C 85 % 1025,3 hPa 0,0 mm 0,0 km/h (0 Bft) N 0,00 h 0,000 mm 11 W/m 8,1 C 10,5 C 0,0 km/h (0 Bft)
20/02/2023 08:00 10,8 C 85 % 1026,1 hPa 0,0 mm 0,0 km/h (0 Bft) N 0,00 h 0,000 mm 26 W/m 8,3 C 10,8 C 0,1 km/h (0 Bft)
20/02/2023 09:00 11,3 C 85 % 1026,5 hPa 0,0 mm 0,0 km/h (0 Bft) N 0,00 h 0,025 mm 50 W/m 8,8 C 11,3 C 0,3 km/h (0 Bft)
20/02/2023 10:00 12,6 C 83 % 1026,6 hPa 0,0 mm 0,1 km/h (0 Bft) S 0,00 h 0,025 mm 128 W/m 9,7 C 12,6 C 0,5 km/h (0 Bft)
20/02/2023 11:00 13,8 C 77 % 1026,7 hPa 0,0 mm 0,2 km/h (0 Bft) S 0,00 h 0,076 mm 171 W/m 9,8 C 13,8 C 2,0 km/h (1 Bft)
20/02/2023 12:00 14,3 C 74 % 1026,3 hPa 0,0 mm 0,2 km/h (0 Bft) S 0,00 h 0,102 mm 168 W/m 9,7 C 14,3 C 1,3 km/h (1 Bft)
20/02/2023 13:00 14,3 C 72 % 1025,8 hPa 0,0 mm 0,3 km/h (0 Bft) S 0,00 h 0,102 mm 177 W/m 9,2 C 14,3 C 0,8 km/h (0 Bft)
20/02/2023 14:00 15,2 C 69 % 1025,1 hPa 0,0 mm 0,2 km/h (0 Bft) S 0,48 h 0,102 mm 345 W/m 9,5 C 15,2 C 1,0 km/h (0 Bft)
20/02/2023 15:00 16,7 C 63 % 1024,5 hPa 0,0 mm 0,6 km/h (0 Bft) S 1,00 h 0,178 mm 360 W/m 9,6 C 16,7 C 2,4 km/h (1 Bft)
20/02/2023 16:00 16,1 C 66 % 1024,3 hPa 0,0 mm 0,3 km/h (0 Bft) S 1,00 h 0,203 mm 207 W/m 9,7 C 16,1 C 1,6 km/h (1 Bft)
20/02/2023 17:00 14,0 C 77 % 1024,3 hPa 0,0 mm 0,0 km/h (0 Bft) N 0,20 h 0,127 mm 43 W/m 10,0 C 14,0 C 0,0 km/h (0 Bft)
20/02/2023 18:00 12,2 C 83 % 1024,5 hPa 0,0 mm 0,0 km/h (0 Bft) N 0,00 h 0,025 mm 6 W/m 9,4 C 12,2 C 0,0 km/h (0 Bft)
20/02/2023 19:00 10,5 C 86 % 1024,6 hPa 0,0 mm 0,0 km/h (0 Bft) N 0,00 h 0,000 mm 0 W/m 8,3 C 10,5 C 0,2 km/h (0 Bft)
20/02/2023 20:00 9,8 C 87 % 1024,5 hPa 0,0 mm 1,5 km/h (1 Bft) S-SO 0,00 h 0,000 mm 0 W/m 7,7 C 9,8 C 3,3 km/h (1 Bft)
20/02/2023 21:00 9,5 C 86 % 1024,5 hPa 0,0 mm 2,4 km/h (1 Bft) S-SO 0,00 h 0,000 mm 0 W/m 7,4 C 9,5 C 4,5 km/h (1 Bft)
20/02/2023 22:00 9,0 C 87 % 1024,1 hPa 0,0 mm 0,1 km/h (0 Bft) S-SO 0,00 h 0,000 mm 0 W/m 6,9 C 9,0 C 0,9 km/h (0 Bft)
20/02/2023 23:00 8,7 C 87 % 1023,7 hPa 0,0 mm 0,0 km/h (0 Bft) S-SO 0,00 h 0,000 mm 0 W/m 6,6 C 8,7 C 0,7 km/h (0 Bft)
21/02/2023 00:00 8,4 C 87 % 1023,5 hPa 0,0 mm 0,5 km/h (0 Bft) S-SO 0,00 h 0,000 mm 0 W/m 6,4 C 8,4 C 1,2 km/h (1 Bft)
21/02/2023 01:00 8,5 C 87 % 1023,5 hPa 0,0 mm 0,0 km/h (0 Bft) N 0,00 h 0,000 mm 0 W/m 6,4 C 8,5 C 0,0 km/h (0 Bft)
21/02/2023 02:00 9,1 C 84 % 1023,2 hPa 0,0 mm 0,1 km/h (0 Bft) S-SO 0,00 h 0,000 mm 0 W/m 6,6 C 9,1 C 0,6 km/h (0 Bft)
21/02/2023 03:00 9,6 C 82 % 1022,6 hPa 0,0 mm 0,5 km/h (0 Bft) S-SO 0,00 h 0,000 mm 0 W/m 6,7 C 9,6 C 2,1 km/h (1 Bft)
21/02/2023 04:00 9,6 C 82 % 1022,1 hPa 0,0 mm 1,9 km/h (1 Bft) SO 0,00 h 0,025 mm 0 W/m 6,7 C 9,6 C 3,9 km/h (1 Bft)
21/02/2023 05:00 9,8 C 81 % 1021,9 hPa 0,0 mm 1,2 km/h (1 Bft) SO 0,00 h 0,025 mm 0 W/m 6,7 C 9,7 C 3,1 km/h (1 Bft)
21/02/2023 06:00 9,7 C 81 % 1021,8 hPa 0,0 mm 1,5 km/h (1 Bft) SO 0,00 h 0,025 mm 0 W/m 6,6 C 9,7 C 3,1 km/h (1 Bft)
21/02/2023 07:00 9,7 C 81 % 1021,5 hPa 0,0 mm 1,7 km/h (1 Bft) SO 0,00 h 0,025 mm 10 W/m 6,6 C 9,7 C 4,3 km/h (1 Bft)
21/02/2023 08:00 10,0 C 81 % 1021,8 hPa 0,0 mm 2,2 km/h (1 Bft) SO 0,00 h 0,000 mm 30 W/m 6,9 C 10,0 C 4,9 km/h (1 Bft)
21/02/2023 09:00 10,6 C 81 % 1021,7 hPa 0,0 mm 0,3 km/h (0 Bft) SO 0,00 h 0,025 mm 91 W/m 7,5 C 10,6 C 0,9 km/h (0 Bft)
21/02/2023 10:00 11,8 C 80 % 1021,8 hPa 0,0 mm 0,0 km/h (0 Bft) N 0,00 h 0,051 mm 128 W/m 8,4 C 11,8 C 0,0 km/h (0 Bft)
21/02/2023 11:00 12,6 C 77 % 1021,7 hPa 0,0 mm 0,0 km/h (0 Bft) N 0,00 h 0,076 mm 136 W/m 8,7 C 12,6 C 0,1 km/h (0 Bft)
21/02/2023 12:00 13,0 C 76 % 1021,1 hPa 0,0 mm 0,2 km/h (0 Bft) SO 0,00 h 0,076 mm 189 W/m 8,8 C 13,0 C 0,9 km/h (0 Bft)
21/02/2023 13:00 13,2 C 76 % 1020,3 hPa 0,0 mm 1,1 km/h (1 Bft) SO 0,00 h 0,102 mm 194 W/m 9,0 C 13,2 C 2,9 km/h (1 Bft)
21/02/2023 14:00 13,3 C 75 % 1019,5 hPa 0,0 mm 1,4 km/h (1 Bft) S-SO 0,00 h 0,102 mm 154 W/m 9,0 C 13,3 C 3,8 km/h (1 Bft)
21/02/2023 15:00 12,8 C 76 % 1019,2 hPa 0,0 mm 0,8 km/h (0 Bft) S-SO 0,00 h 0,076 mm 79 W/m 8,8 C 12,8 C 2,7 km/h (1 Bft)
21/02/2023 16:00 12,4 C 79 % 1019,0 hPa 0,0 mm 0,2 km/h (0 Bft) S-SO 0,00 h 0,051 mm 44 W/m 8,9 C 12,4 C 0,7 km/h (0 Bft)
21/02/2023 17:00 12,0 C 82 % 1018,9 hPa 0,0 mm 0,0 km/h (0 Bft) N 0,00 h 0,025 mm 17 W/m 9,0 C 12,0 C 0,0 km/h (0 Bft)
21/02/2023 18:00 11,5 C 83 % 1019,0 hPa 0,0 mm 0,0 km/h (0 Bft) N 0,00 h 0,000 mm 0 W/m 8,7 C 11,5 C 0,0 km/h (0 Bft)
21/02/2023 19:00 11,0 C 85 % 1019,3 hPa 0,0 mm 0,0 km/h (0 Bft) N 0,00 h 0,000 mm 0 W/m 8,5 C 11,0 C 0,0 km/h (0 Bft)
21/02/2023 20:00 10,8 C 85 % 1019,2 hPa 0,0 mm 0,0 km/h (0 Bft) N 0,00 h 0,000 mm 0 W/m 8,4 C 10,8 C 0,0 km/h (0 Bft)
21/02/2023 21:00 10,7 C 86 % 1019,2 hPa 0,0 mm 0,0 km/h (0 Bft) N 0,00 h 0,000 mm 0 W/m 8,5 C 10,7 C 0,0 km/h (0 Bft)
21/02/2023 22:00 10,6 C 86 % 1019,2 hPa 0,0 mm 0,0 km/h (0 Bft) N 0,00 h 0,000 mm 0 W/m 8,3 C 10,6 C 0,0 km/h (0 Bft)
21/02/2023 23:00 10,3 C 87 % 1018,8 hPa 0,0 mm 0,0 km/h (0 Bft) N 0,00 h 0,000 mm 0 W/m 8,2 C 10,3 C 0,0 km/h (0 Bft)
22/02/2023 00:00 10,2 C 88 % 1018,6 hPa 0,0 mm 0,0 km/h (0 Bft) N 0,00 h 0,000 mm 0 W/m 8,2 C 10,2 C 0,0 km/h (0 Bft)
22/02/2023 01:00 10,2 C 87 % 1018,6 hPa 0,0 mm 0,0 km/h (0 Bft) N 0,00 h 0,000 mm 0 W/m 8,1 C 10,2 C 0,0 km/h (0 Bft)
22/02/2023 02:00 10,1 C 86 % 1018,5 hPa 0,0 mm 0,0 km/h (0 Bft) N 0,00 h 0,000 mm 0 W/m 7,9 C 10,1 C 0,0 km/h (0 Bft)
22/02/2023 03:00 9,7 C 85 % 1018,1 hPa 0,0 mm 0,0 km/h (0 Bft) N 0,00 h 0,000 mm 0 W/m 7,3 C 9,7 C 0,0 km/h (0 Bft)
22/02/2023 04:00 9,1 C 85 % 1017,8 hPa 0,0 mm 0,0 km/h (0 Bft) N 0,00 h 0,000 mm 0 W/m 6,8 C 9,1 C 0,0 km/h (0 Bft)
22/02/2023 05:00 8,3 C 87 % 1017,5 hPa 0,0 mm 0,0 km/h (0 Bft) N 0,00 h 0,000 mm 0 W/m 6,2 C 8,3 C 0,1 km/h (0 Bft)
22/02/2023 06:00 7,9 C 87 % 1017,3 hPa 0,0 mm 1,0 km/h (0 Bft) S-SO 0,00 h 0,000 mm 0 W/m 5,8 C 7,9 C 2,6 km/h (1 Bft)
22/02/2023 07:00 8,1 C 85 % 1017,4 hPa 0,0 mm 0,5 km/h (0 Bft) S-SO 0,07 h 0,000 mm 18 W/m 5,7 C 8,1 C 1,7 km/h (1 Bft)
22/02/2023 08:00 8,6 C 84 % 1017,8 hPa 0,0 mm 0,0 km/h (0 Bft) N 0,80 h 0,000 mm 131 W/m 6,1 C 8,6 C 0,0 km/h (0 Bft)
22/02/2023 09:00 12,1 C 77 % 1017,6 hPa 0,0 mm 0,0 km/h (0 Bft) N 0,98 h 0,051 mm 275 W/m 8,1 C 12,1 C 0,0 km/h (0 Bft)
22/02/2023 10:00 14,1 C 69 % 1017,6 hPa 0,0 mm 0,0 km/h (0 Bft) S-SO 0,33 h 0,127 mm 295 W/m 8,5 C 14,1 C 0,5 km/h (0 Bft)
22/02/2023 11:00 15,3 C 66 % 1017,4 hPa 0,0 mm 0,6 km/h (0 Bft) S 0,57 h 0,152 mm 426 W/m 8,9 C 15,3 C 2,6 km/h (1 Bft)
22/02/2023 12:00 15,4 C 66 % 1016,9 hPa 0,0 mm 1,8 km/h (1 Bft) S 0,48 h 0,229 mm 424 W/m 9,2 C 15,4 C 4,9 km/h (1 Bft)
22/02/2023 13:00 14,8 C 69 % 1016,3 hPa 0,0 mm 0,9 km/h (0 Bft) S-SE 0,02 h 0,229 mm 210 W/m 9,1 C 14,8 C 3,5 km/h (1 Bft)
22/02/2023 14:00 13,2 C 77 % 1015,9 hPa 0,0 mm 1,2 km/h (1 Bft) S-SE 0,00 h 0,127 mm 37 W/m 9,4 C 13,2 C 3,3 km/h (1 Bft)
22/02/2023 15:00 12,4 C 83 % 1015,8 hPa 0,0 mm 1,5 km/h (1 Bft) S-SE 0,00 h 0,025 mm 37 W/m 9,5 C 12,4 C 3,1 km/h (1 Bft)
22/02/2023 16:00 12,2 C 84 % 1015,7 hPa 0,0 mm 0,0 km/h (0 Bft) N 0,00 h 0,025 mm 22 W/m 9,6 C 12,2 C 0,0 km/h (0 Bft)
22/02/2023 17:00 12,0 C 86 % 1015,5 hPa 0,0 mm 0,0 km/h (0 Bft) N 0,00 h 0,025 mm 10 W/m 9,7 C 12,0 C 0,0 km/h (0 Bft)
22/02/2023 18:00 11,6 C 87 % 1015,5 hPa 0,0 mm 0,0 km/h (0 Bft) N 0,00 h 0,000 mm 0 W/m 9,6 C 11,6 C 0,0 km/h (0 Bft)
22/02/2023 19:00 11,3 C 89 % 1015,6 hPa 0,0 mm 0,0 km/h (0 Bft) N 0,00 h 0,000 mm 0 W/m 9,6 C 11,3 C 0,0 km/h (0 Bft)
22/02/2023 20:00 11,2 C 89 % 1015,4 hPa 0,0 mm 0,0 km/h (0 Bft) N 0,00 h 0,000 mm 0 W/m 9,5 C 11,2 C 0,0 km/h (0 Bft)
22/02/2023 21:00 11,1 C 90 % 1015,2 hPa 0,0 mm 0,0 km/h (0 Bft) N 0,00 h 0,000 mm 0 W/m 9,5 C 11,1 C 0,0 km/h (0 Bft)
22/02/2023 22:00 10,7 C 90 % 1015,1 hPa 0,0 mm 0,0 km/h (0 Bft) N 0,00 h 0,000 mm 0 W/m 9,1 C 10,7 C 0,0 km/h (0 Bft)
22/02/2023 23:00 10,2 C 91 % 1014,9 hPa 0,0 mm 0,0 km/h (0 Bft) N 0,00 h 0,000 mm 0 W/m 8,8 C 10,2 C 0,0 km/h (0 Bft)
23/02/2023 00:00 10,1 C 93 % 1014,6 hPa 0,0 mm 0,0 km/h (0 Bft) N 0,00 h 0,000 mm 0 W/m 9,0 C 10,1 C 0,0 km/h (0 Bft)
23/02/2023 01:00 10,0 C 92 % 1014,4 hPa 0,0 mm 0,0 km/h (0 Bft) N 0,00 h 0,000 mm 0 W/m 8,8 C 10,0 C 0,0 km/h (0 Bft)
23/02/2023 02:00 9,8 C 91 % 1014,2 hPa 0,0 mm 0,0 km/h (0 Bft) N 0,00 h 0,000 mm 0 W/m 8,3 C 9,8 C 0,0 km/h (0 Bft)
23/02/2023 03:00 9,2 C 89 % 1013,8 hPa 0,0 mm 0,0 km/h (0 Bft) N 0,00 h 0,000 mm 0 W/m 7,5 C 9,2 C 0,1 km/h (0 Bft)
23/02/2023 04:00 8,5 C 88 % 1013,5 hPa 0,0 mm 0,0 km/h (0 Bft) N 0,00 h 0,000 mm 0 W/m 6,6 C 8,5 C 0,2 km/h (0 Bft)
23/02/2023 05:00 8,2 C 88 % 1013,4 hPa 0,0 mm 0,0 km/h (0 Bft) S-SE 0,00 h 0,000 mm 0 W/m 6,3 C 8,2 C 0,1 km/h (0 Bft)
23/02/2023 06:00 8,2 C 89 % 1013,5 hPa 0,0 mm 0,5 km/h (0 Bft) S-SE 0,00 h 0,000 mm 0 W/m 6,4 C 8,2 C 1,1 km/h (1 Bft)
23/02/2023 07:00 8,5 C 89 % 1013,7 hPa 0,0 mm 0,0 km/h (0 Bft) N 0,00 h 0,000 mm 15 W/m 6,7 C 8,5 C 0,1 km/h (0 Bft)
23/02/2023 08:00 9,0 C 87 % 1014,2 hPa 0,0 mm 0,0 km/h (0 Bft) N 0,00 h 0,000 mm 52 W/m 7,0 C 9,0 C 0,0 km/h (0 Bft)
23/02/2023 09:00 10,1 C 86 % 1014,4 hPa 0,0 mm 0,0 km/h (0 Bft) N 0,00 h 0,025 mm 91 W/m 7,9 C 10,1 C 0,0 km/h (0 Bft)
23/02/2023 10:00 11,4 C 82 % 1014,7 hPa 0,0 mm 0,0 km/h (0 Bft) N 0,00 h 0,051 mm 125 W/m 8,6 C 11,4 C 0,0 km/h (0 Bft)
23/02/2023 11:00 13,0 C 82 % 1014,9 hPa 0,0 mm 0,0 km/h (0 Bft) N 0,03 h 0,051 mm 186 W/m 9,9 C 13,0 C 0,1 km/h (0 Bft)
23/02/2023 12:00 14,1 C 82 % 1014,9 hPa 0,0 mm 0,2 km/h (0 Bft) S-SE 0,23 h 0,102 mm 229 W/m 11,0 C 14,1 C 1,5 km/h (1 Bft)
23/02/2023 13:00 14,7 C 82 % 1014,3 hPa 0,0 mm 0,5 km/h (0 Bft) S-SE 0,08 h 0,127 mm 232 W/m 11,6 C 14,7 C 2,2 km/h (1 Bft)
23/02/2023 14:00 13,9 C 82 % 1013,9 hPa 0,0 mm 1,7 km/h (1 Bft) S-SE 0,00 h 0,127 mm 197 W/m 10,9 C 13,9 C 5,0 km/h (1 Bft)
23/02/2023 15:00 13,4 C 84 % 1013,8 hPa 0,0 mm 1,7 km/h (1 Bft) S-SE 0,07 h 0,102 mm 151 W/m 10,7 C 13,4 C 4,5 km/h (1 Bft)
23/02/2023 16:00 12,6 C 86 % 1013,9 hPa 0,0 mm 0,7 km/h (0 Bft) S-SE 0,00 h 0,076 mm 58 W/m 10,4 C 12,6 C 2,9 km/h (1 Bft)
23/02/2023 17:00 12,2 C 89 % 1013,9 hPa 0,0 mm 0,5 km/h (0 Bft) S-SE 0,00 h 0,025 mm 31 W/m 10,4 C 12,2 C 1,9 km/h (1 Bft)
23/02/2023 18:00 11,6 C 90 % 1014,0 hPa 0,0 mm 0,0 km/h (0 Bft) N 0,00 h 0,025 mm 5 W/m 10,1 C 11,6 C 0,0 km/h (0 Bft)
23/02/2023 19:00 10,9 C 91 % 1014,4 hPa 0,0 mm 0,0 km/h (0 Bft) N 0,00 h 0,000 mm 0 W/m 9,4 C 10,9 C 0,0 km/h (0 Bft)
23/02/2023 20:00 10,7 C 93 % 1014,3 hPa 0,0 mm 0,0 km/h (0 Bft) S-SE 0,00 h 0,000 mm 0 W/m 9,5 C 10,7 C 0,1 km/h (0 Bft)
23/02/2023 21:00 10,3 C 93 % 1014,4 hPa 0,0 mm 0,0 km/h (0 Bft) S-SE 0,00 h 0,000 mm 0 W/m 9,3 C 10,3 C 0,2 km/h (0 Bft)
23/02/2023 22:00 9,7 C 93 % 1014,4 hPa 0,0 mm 0,0 km/h (0 Bft) N 0,00 h 0,000 mm 0 W/m 8,6 C 9,7 C 0,0 km/h (0 Bft)
23/02/2023 23:00 9,2 C 94 % 1014,3 hPa 0,0 mm 0,0 km/h (0 Bft) N 0,00 h 0,000 mm 0 W/m 8,3 C 9,2 C 0,0 km/h (0 Bft)
24/02/2023 00:00 8,8 C 94 % 1013,8 hPa 0,0 mm 0,0 km/h (0 Bft) N 0,00 h 0,000 mm 0 W/m 7,8 C 8,8 C 0,1 km/h (0 Bft)
24/02/2023 01:00 8,4 C 94 % 1013,5 hPa 0,0 mm 0,0 km/h (0 Bft) N 0,00 h 0,000 mm 0 W/m 7,5 C 8,4 C 0,0 km/h (0 Bft)
24/02/2023 02:00 8,3 C 94 % 1013,0 hPa 0,0 mm 0,0 km/h (0 Bft) N 0,00 h 0,000 mm 0 W/m 7,4 C 8,3 C 0,1 km/h (0 Bft)
24/02/2023 03:00 8,4 C 93 % 1012,4 hPa 0,0 mm 0,0 km/h (0 Bft) N 0,00 h 0,000 mm 0 W/m 7,3 C 8,4 C 0,2 km/h (0 Bft)
24/02/2023 04:00 8,4 C 92 % 1011,9 hPa 0,0 mm 0,1 km/h (0 Bft) S-SE 0,00 h 0,000 mm 0 W/m 7,1 C 8,4 C 0,6 km/h (0 Bft)
24/02/2023 05:00 8,2 C 91 % 1012,2 hPa 0,0 mm 0,0 km/h (0 Bft) S-SE 0,00 h 0,000 mm 0 W/m 6,8 C 8,2 C 0,3 km/h (0 Bft)
24/02/2023 06:00 8,1 C 91 % 1012,1 hPa 0,0 mm 0,0 km/h (0 Bft) N 0,00 h 0,000 mm 0 W/m 6,8 C 8,1 C 0,0 km/h (0 Bft)
24/02/2023 07:00 8,8 C 90 % 1012,1 hPa 0,0 mm 0,0 km/h (0 Bft) N 0,00 h 0,000 mm 16 W/m 7,2 C 8,8 C 0,0 km/h (0 Bft)
24/02/2023 08:00 9,6 C 87 % 1012,3 hPa 0,0 mm 0,0 km/h (0 Bft) N 0,00 h 0,000 mm 25 W/m 7,6 C 9,6 C 0,0 km/h (0 Bft)
24/02/2023 09:00 10,2 C 87 % 1012,4 hPa 0,0 mm 0,0 km/h (0 Bft) N 0,00 h 0,025 mm 34 W/m 8,2 C 10,2 C 0,1 km/h (0 Bft)
24/02/2023 10:00 11,3 C 86 % 1012,0 hPa 0,0 mm 0,1 km/h (0 Bft) S-SE 0,35 h 0,025 mm 225 W/m 9,1 C 11,3 C 0,7 km/h (0 Bft)
24/02/2023 11:00 13,9 C 78 % 1011,5 hPa 0,0 mm 0,5 km/h (0 Bft) S-SE 0,28 h 0,102 mm 280 W/m 10,1 C 13,9 C 2,0 km/h (1 Bft)
24/02/2023 12:00 15,6 C 74 % 1010,9 hPa 0,0 mm 1,2 km/h (1 Bft) E-SE 0,95 h 0,152 mm 429 W/m 11,0 C 15,6 C 5,4 km/h (1 Bft)
24/02/2023 13:00 15,8 C 76 % 1009,8 hPa 0,0 mm 1,5 km/h (1 Bft) S-SE 0,48 h 0,229 mm 349 W/m 11,6 C 15,8 C 6,0 km/h (2 Bft)
24/02/2023 14:00 14,7 C 81 % 1009,0 hPa 0,0 mm 1,5 km/h (1 Bft) E-SE 0,03 h 0,203 mm 202 W/m 11,4 C 14,7 C 5,8 km/h (2 Bft)
24/02/2023 15:00 14,2 C 83 % 1008,5 hPa 0,0 mm 1,3 km/h (1 Bft) E-SE 0,00 h 0,102 mm 131 W/m 11,3 C 14,2 C 4,7 km/h (1 Bft)
24/02/2023 16:00 13,1 C 88 % 1008,2 hPa 0,0 mm 0,7 km/h (0 Bft) E-SE 0,00 h 0,076 mm 60 W/m 11,2 C 13,1 C 2,9 km/h (1 Bft)
24/02/2023 17:00 12,6 C 90 % 1007,9 hPa 0,0 mm 0,0 km/h (0 Bft) N 0,00 h 0,025 mm 12 W/m 11,0 C 12,6 C 0,1 km/h (0 Bft)
24/02/2023 18:00 12,1 C 90 % 1007,5 hPa 0,0 mm 0,0 km/h (0 Bft) E-SE 0,00 h 0,000 mm 0 W/m 10,5 C 12,1 C 0,2 km/h (0 Bft)
24/02/2023 19:00 11,4 C 90 % 1007,3 hPa 0,0 mm 0,0 km/h (0 Bft) N 0,00 h 0,000 mm 0 W/m 9,8 C 11,4 C 0,0 km/h (0 Bft)
24/02/2023 20:00 11,2 C 90 % 1007,0 hPa 0,0 mm 0,0 km/h (0 Bft) N 0,00 h 0,000 mm 0 W/m 9,6 C 11,2 C 0,0 km/h (0 Bft)
24/02/2023 21:00 10,7 C 91 % 1006,4 hPa 0,0 mm 0,4 km/h (0 Bft) E-SE 0,00 h 0,000 mm 0 W/m 9,2 C 10,7 C 0,7 km/h (0 Bft)
24/02/2023 22:00 10,3 C 93 % 1006,3 hPa 0,0 mm 0,3 km/h (0 Bft) E-SE 0,00 h 0,000 mm 0 W/m 9,2 C 10,3 C 1,4 km/h (1 Bft)
24/02/2023 23:00 10,0 C 92 % 1006,0 hPa 0,0 mm 0,0 km/h (0 Bft) E-SE 0,00 h 0,000 mm 0 W/m 8,9 C 10,0 C 0,5 km/h (0 Bft)
25/02/2023 00:00 9,7 C 92 % 1005,2 hPa 0,0 mm 0,6 km/h (0 Bft) E-SE 0,00 h 0,000 mm 0 W/m 8,4 C 9,7 C 1,3 km/h (1 Bft)
25/02/2023 01:00 8,9 C 89 % 1004,3 hPa 0,0 mm 0,5 km/h (0 Bft) E-SE 0,00 h 0,000 mm 0 W/m 7,3 C 8,9 C 1,2 km/h (1 Bft)
25/02/2023 02:00 8,9 C 87 % 1004,3 hPa 0,0 mm 0,0 km/h (0 Bft) N 0,00 h 0,000 mm 0 W/m 6,9 C 8,9 C 0,1 km/h (0 Bft)
25/02/2023 03:00 9,1 C 86 % 1003,7 hPa 0,0 mm 0,0 km/h (0 Bft) N 0,00 h 0,000 mm 0 W/m 6,8 C 9,1 C 0,0 km/h (0 Bft)
25/02/2023 04:00 9,4 C 86 % 1003,5 hPa 0,0 mm 0,0 km/h (0 Bft) N 0,00 h 0,000 mm 0 W/m 7,1 C 9,4 C 0,0 km/h (0 Bft)
25/02/2023 05:00 9,6 C 86 % 1002,7 hPa 0,0 mm 0,0 km/h (0 Bft) N 0,00 h 0,000 mm 0 W/m 7,3 C 9,6 C 0,0 km/h (0 Bft)
25/02/2023 06:00 9,8 C 85 % 1002,0 hPa 0,0 mm 0,0 km/h (0 Bft) N 0,00 h 0,000 mm 0 W/m 7,4 C 9,8 C 0,1 km/h (0 Bft)
25/02/2023 07:00 10,1 C 83 % 1001,2 hPa 0,0 mm 0,0 km/h (0 Bft) N 0,00 h 0,000 mm 8 W/m 7,4 C 10,1 C 0,1 km/h (0 Bft)
25/02/2023 08:00 10,1 C 84 % 1001,4 hPa 0,0 mm 0,7 km/h (0 Bft) E-SE 0,00 h 0,000 mm 32 W/m 7,5 C 10,1 C 1,5 km/h (1 Bft)
25/02/2023 09:00 10,5 C 84 % 1001,5 hPa 0,0 mm 0,0 km/h (0 Bft) N 0,00 h 0,025 mm 84 W/m 7,9 C 10,5 C 0,1 km/h (0 Bft)
25/02/2023 10:00 11,7 C 83 % 1001,1 hPa 0,0 mm 0,0 km/h (0 Bft) N 0,00 h 0,051 mm 146 W/m 8,9 C 11,7 C 0,0 km/h (0 Bft)
25/02/2023 11:00 13,0 C 83 % 1001,0 hPa 0,0 mm 0,0 km/h (0 Bft) N 0,00 h 0,076 mm 211 W/m 10,1 C 13,0 C 0,0 km/h (0 Bft)
25/02/2023 12:00 13,5 C 80 % 1000,3 hPa 0,0 mm 0,0 km/h (0 Bft) N 0,07 h 0,102 mm 246 W/m 10,2 C 13,5 C 0,0 km/h (0 Bft)
25/02/2023 13:00 14,1 C 77 % 999,6 hPa 0,0 mm 0,0 km/h (0 Bft) N 0,00 h 0,127 mm 167 W/m 10,1 C 14,1 C 0,1 km/h (0 Bft)
25/02/2023 14:00 14,4 C 79 % 998,6 hPa 0,0 mm 0,0 km/h (0 Bft) N 0,00 h 0,102 mm 192 W/m 10,8 C 14,4 C 0,1 km/h (0 Bft)
25/02/2023 15:00 14,1 C 78 % 998,3 hPa 0,0 mm 0,0 km/h (0 Bft) E-SE 0,00 h 0,102 mm 94 W/m 10,3 C 14,1 C 0,3 km/h (0 Bft)
25/02/2023 16:00 13,3 C 82 % 997,9 hPa 0,0 mm 0,1 km/h (0 Bft) E-SE 0,00 h 0,051 mm 59 W/m 10,4 C 13,3 C 0,3 km/h (0 Bft)
25/02/2023 17:00 12,7 C 85 % 997,8 hPa 0,0 mm 0,0 km/h (0 Bft) N 0,00 h 0,025 mm 19 W/m 10,2 C 12,7 C 0,0 km/h (0 Bft)
25/02/2023 18:00 11,6 C 86 % 997,7 hPa 0,0 mm 0,0 km/h (0 Bft) N 0,00 h 0,000 mm 0 W/m 9,3 C 11,6 C 0,0 km/h (0 Bft)
25/02/2023 19:00 10,7 C 89 % 997,4 hPa 0,0 mm 0,0 km/h (0 Bft) N 0,00 h 0,000 mm 0 W/m 9,1 C 10,7 C 0,0 km/h (0 Bft)
25/02/2023 20:00 10,1 C 91 % 997,6 hPa 0,0 mm 0,0 km/h (0 Bft) N 0,00 h 0,000 mm 0 W/m 8,6 C 10,1 C 0,0 km/h (0 Bft)
25/02/2023 21:00 9,8 C 92 % 997,7 hPa 0,0 mm 0,0 km/h (0 Bft) N 0,00 h 0,000 mm 0 W/m 8,6 C 9,8 C 0,1 km/h (0 Bft)
25/02/2023 22:00 9,6 C 92 % 997,3 hPa 0,0 mm 0,0 km/h (0 Bft) N 0,00 h 0,000 mm 0 W/m 8,4 C 9,6 C 0,0 km/h (0 Bft)
25/02/2023 23:00 9,3 C 92 % 996,9 hPa 0,0 mm 0,0 km/h (0 Bft) N 0,00 h 0,000 mm 0 W/m 8,0 C 9,3 C 0,0 km/h (0 Bft)
26/02/2023 00:00 9,0 C 92 % 996,3 hPa 0,0 mm 0,0 km/h (0 Bft) N 0,00 h 0,000 mm 0 W/m 7,8 C 9,0 C 0,0 km/h (0 Bft)
26/02/2023 01:00 8,9 C 92 % 995,7 hPa 0,0 mm 0,0 km/h (0 Bft) N 0,00 h 0,000 mm 0 W/m 7,6 C 8,9 C 0,0 km/h (0 Bft)
26/02/2023 02:00 8,7 C 90 % 994,9 hPa 0,0 mm 0,0 km/h (0 Bft) N 0,00 h 0,000 mm 0 W/m 7,1 C 8,7 C 0,0 km/h (0 Bft)
26/02/2023 03:00 8,4 C 89 % 994,2 hPa 0,0 mm 0,1 km/h (0 Bft) E-SE 0,00 h 0,000 mm 0 W/m 6,7 C 8,4 C 0,6 km/h (0 Bft)
26/02/2023 04:00 8,5 C 87 % 993,5 hPa 0,0 mm 0,1 km/h (0 Bft) E-SE 0,00 h 0,000 mm 0 W/m 6,4 C 8,5 C 0,5 km/h (0 Bft)
26/02/2023 05:00 8,6 C 87 % 993,3 hPa 0,0 mm 0,0 km/h (0 Bft) N 0,00 h 0,000 mm 0 W/m 6,5 C 8,6 C 0,0 km/h (0 Bft)
26/02/2023 06:00 8,4 C 88 % 993,1 hPa 0,0 mm 0,0 km/h (0 Bft) N 0,00 h 0,000 mm 0 W/m 6,6 C 8,4 C 0,0 km/h (0 Bft)
26/02/2023 07:00 8,2 C 89 % 993,1 hPa 0,0 mm 0,0 km/h (0 Bft) N 0,00 h 0,000 mm 18 W/m 6,5 C 8,2 C 0,1 km/h (0 Bft)
26/02/2023 08:00 8,6 C 90 % 993,2 hPa 0,0 mm 0,0 km/h (0 Bft) N 0,00 h 0,000 mm 51 W/m 7,0 C 8,6 C 0,0 km/h (0 Bft)
26/02/2023 09:00 9,4 C 88 % 992,7 hPa 0,0 mm 0,0 km/h (0 Bft) N 0,00 h 0,025 mm 78 W/m 7,5 C 9,4 C 0,0 km/h (0 Bft)
26/02/2023 10:00 10,3 C 84 % 992,5 hPa 0,0 mm 0,0 km/h (0 Bft) N 0,00 h 0,025 mm 68 W/m 7,8 C 10,3 C 0,0 km/h (0 Bft)
26/02/2023 11:00 10,5 C 82 % 992,5 hPa 0,0 mm 0,0 km/h (0 Bft) N 0,00 h 0,025 mm 52 W/m 7,6 C 10,5 C 0,0 km/h (0 Bft)
26/02/2023 12:00 10,6 C 86 % 992,5 hPa 0,6 mm 0,1 km/h (0 Bft) E-SE 0,00 h 0,025 mm 29 W/m 8,4 C 10,6 C 0,4 km/h (0 Bft)
26/02/2023 13:00 9,4 C 93 % 992,8 hPa 5,8 mm 4,8 km/h (1 Bft) E-SE 0,00 h 0,025 mm 33 W/m 8,3 C 9,0 C 12,4 km/h (3 Bft)
26/02/2023 14:00 8,3 C 96 % 993,1 hPa 1,6 mm 5,2 km/h (1 Bft) E-SE 0,00 h 0,025 mm 36 W/m 7,6 C 7,7 C 14,5 km/h (3 Bft)
26/02/2023 15:00 7,6 C 96 % 993,9 hPa 1,6 mm 1,8 km/h (1 Bft) N-NE 0,00 h 0,025 mm 40 W/m 7,0 C 7,5 C 5,8 km/h (2 Bft)
26/02/2023 16:00 6,7 C 96 % 994,7 hPa 1,0 mm 1,2 km/h (1 Bft) N-NE 0,00 h 0,025 mm 25 W/m 6,1 C 6,6 C 4,0 km/h (1 Bft)
26/02/2023 17:00 6,1 C 96 % 996,0 hPa 0,6 mm 0,2 km/h (0 Bft) N-NE 0,00 h 0,000 mm 10 W/m 5,5 C 6,1 C 0,9 km/h (0 Bft)
26/02/2023 18:00 5,6 C 96 % 997,6 hPa 0,8 mm 0,1 km/h (0 Bft) E-SE 0,00 h 0,000 mm 5 W/m 5,0 C 5,6 C 0,5 km/h (0 Bft)
26/02/2023 19:00 5,1 C 96 % 998,7 hPa 0,2 mm 0,2 km/h (0 Bft) E-SE 0,00 h 0,000 mm 0 W/m 4,5 C 5,1 C 0,8 km/h (0 Bft)
26/02/2023 20:00 4,4 C 95 % 999,7 hPa 0,6 mm 2,1 km/h (1 Bft) E-SE 0,00 h 0,000 mm 0 W/m 3,7 C 4,3 C 4,9 km/h (1 Bft)
26/02/2023 21:00 4,2 C 94 % 1000,5 hPa 0,0 mm 0,4 km/h (0 Bft) E-SE 0,00 h 0,000 mm 0 W/m 3,3 C 4,2 C 1,4 km/h (1 Bft)
26/02/2023 22:00 4,3 C 93 % 1000,8 hPa 0,2 mm 3,5 km/h (1 Bft) E-SE 0,00 h 0,000 mm 0 W/m 3,3 C 3,9 C 6,9 km/h (2 Bft)
26/02/2023 23:00 4,6 C 91 % 1001,5 hPa 0,0 mm 0,4 km/h (0 Bft) O-NO 0,00 h 0,000 mm 0 W/m 3,2 C 4,6 C 1,5 km/h (1 Bft)
Min-Date _ 26/02/23 20/02/23 26/02/23 - 20/02/23 - - - - 26/02/23 26/02/23 20/02/23
_ Min-Heure 21:37 15:12 09:30 - 00:00 - - - - 23:00 20:43 00:00
Minimum _ 4,1 C 61 % 992,5 hPa - 0,0 km/h (0 Bft) - - - - 3,1 C 2,7 C 0,0 km/h (0 Bft)
Max-Date _ 20/02/23 26/02/23 20/02/23 26/02/23 26/02/23 - 20/02/23 22/02/23 22/02/23 24/02/23 20/02/23 26/02/23
_ Max-Heure 15:10 14:21 11:15 13:02 13:37 - 14:28 12:00 12:47 13:22 15:10 14:01
Maximum _ 17,1 C 96 % 1026,7 hPa 5,8 mm 14,5 km/h
E-SE (3 Bft)
- 0,02 h 0,229 mm 724 W/m 12,2 C 17,1 C 30,6 km/h
E-SE (5 Bft)
Moyenne _ 10,6 C 86 % 1011,8 hPa #13,0 mm 0,4 km/h (0 Bft) E-SE #8:31 h #5,150 mm 119 W/m 8,3 C 10,6 C 1,1 km/h (1 Bft)
Roquefort les pins